createdAt,value
2022-11-26T00:02:24.837Z,100.00
2022-11-26T00:04:56.807Z,100.00
2022-11-26T00:07:30.880Z,100.00
2022-11-26T00:10:05.032Z,100.00
2022-11-26T00:12:37.878Z,100.00
2022-11-26T00:15:19.530Z,100.00
2022-11-26T00:17:50.251Z,100.00
2022-11-26T00:20:22.194Z,100.00
2022-11-26T00:22:55.991Z,100.00
2022-11-26T00:25:33.120Z,100.00
2022-11-26T00:28:03.558Z,100.00
2022-11-26T00:30:34.026Z,100.00
2022-11-26T00:33:04.630Z,100.00
2022-11-26T00:35:35.115Z,100.00
2022-11-26T00:38:06.014Z,100.00
2022-11-26T00:40:39.205Z,100.00
2022-11-26T00:43:12.383Z,100.00
2022-11-26T00:45:43.311Z,100.00
2022-11-26T00:48:13.885Z,100.00
2022-11-26T00:50:48.369Z,100.00
2022-11-26T00:53:23.146Z,100.00
2022-11-26T00:55:56.114Z,100.00
2022-11-26T00:58:30.499Z,100.00
2022-11-26T01:01:02.711Z,100.00
2022-11-26T01:03:33.227Z,100.00
2022-11-26T01:06:03.708Z,100.00
2022-11-26T01:08:37.974Z,100.00
2022-11-26T01:11:14.161Z,100.00
2022-11-26T01:13:45.416Z,100.00
2022-11-26T01:16:24.729Z,100.00
2022-11-26T01:18:59.012Z,100.00
2022-11-26T01:21:31.777Z,100.00
2022-11-26T01:24:02.349Z,100.00
2022-11-26T01:26:42.381Z,100.00
2022-11-26T01:29:18.080Z,100.00
2022-11-26T01:31:49.360Z,100.00
2022-11-26T01:34:19.838Z,100.00
2022-11-26T01:36:50.339Z,100.00
2022-11-26T01:39:25.224Z,100.00
2022-11-26T01:42:09.159Z,100.00
2022-11-26T01:44:41.334Z,100.00
2022-11-26T01:47:25.004Z,100.00
2022-11-26T01:50:48.278Z,100.00
2022-11-26T01:53:40.928Z,100.00
2022-11-26T01:56:22.116Z,100.00
2022-11-26T01:58:58.255Z,100.00
2022-11-26T02:01:28.723Z,100.00
2022-11-26T02:04:11.400Z,100.00
2022-11-26T02:06:43.860Z,100.00
2022-11-26T02:09:15.791Z,100.00
2022-11-26T02:11:46.668Z,100.00
2022-11-26T02:14:24.198Z,100.00
2022-11-26T02:17:24.599Z,100.00
2022-11-26T02:20:44.448Z,100.00
2022-11-26T02:23:56.246Z,100.00
2022-11-26T02:27:11.244Z,100.00
2022-11-26T02:30:05.424Z,100.00
2022-11-26T02:32:45.635Z,100.00
2022-11-26T02:35:23.785Z,100.00
2022-11-26T02:37:59.785Z,100.00
2022-11-26T02:40:30.298Z,100.00
2022-11-26T02:43:00.747Z,100.00
2022-11-26T02:45:38.602Z,100.00
2022-11-26T02:48:15.000Z,100.00
2022-11-26T02:50:50.758Z,100.00
2022-11-26T02:53:25.789Z,100.00
2022-11-26T02:56:05.095Z,100.00
2022-11-26T02:58:36.782Z,100.00
2022-11-26T03:01:15.226Z,100.00
2022-11-26T03:03:53.177Z,100.00
2022-11-26T03:06:25.566Z,100.00
2022-11-26T03:08:57.650Z,100.00
2022-11-26T03:11:28.190Z,100.00
2022-11-26T03:13:58.705Z,100.00
2022-11-26T03:16:32.448Z,100.00
2022-11-26T03:19:03.074Z,100.00
2022-11-26T03:21:35.211Z,100.00
2022-11-26T03:24:05.676Z,100.00
2022-11-26T03:26:36.173Z,100.00
2022-11-26T03:29:06.629Z,100.00
2022-11-26T03:31:39.739Z,100.00
2022-11-26T03:34:10.168Z,100.00
2022-11-26T03:36:40.810Z,100.00
2022-11-26T03:39:11.280Z,100.00
2022-11-26T03:41:44.223Z,100.00
2022-11-26T03:44:15.743Z,100.00
2022-11-26T03:46:48.829Z,100.00
2022-11-26T03:49:20.179Z,100.00
2022-11-26T03:51:50.542Z,100.00
2022-11-26T03:54:20.976Z,100.00
2022-11-26T03:56:51.426Z,100.00
2022-11-26T03:59:21.908Z,100.00
2022-11-26T04:01:55.106Z,100.00
2022-11-26T04:04:25.695Z,100.00
2022-11-26T04:06:56.185Z,100.00
2022-11-26T04:09:27.076Z,100.00
2022-11-26T04:11:57.866Z,100.00
2022-11-26T04:14:28.552Z,100.00
2022-11-26T04:17:01.722Z,100.00
2022-11-26T04:19:32.387Z,100.00
2022-11-26T04:22:02.908Z,100.00
2022-11-26T04:24:33.493Z,100.00
2022-11-26T04:27:03.908Z,100.00
2022-11-26T04:29:34.570Z,100.00
2022-11-26T04:32:09.233Z,100.00
2022-11-26T04:34:40.176Z,100.00
2022-11-26T04:37:10.762Z,100.00
2022-11-26T04:39:41.212Z,100.00
2022-11-26T04:42:11.652Z,100.00
2022-11-26T04:44:42.101Z,100.00
2022-11-26T04:47:15.131Z,100.00
2022-11-26T04:49:45.512Z,100.00
2022-11-26T04:52:15.972Z,100.00
2022-11-26T04:54:46.332Z,100.00
2022-11-26T04:57:16.704Z,100.00
2022-11-26T04:59:47.207Z,100.00
2022-11-26T05:02:20.333Z,100.00
2022-11-26T05:04:50.892Z,100.00
2022-11-26T05:07:21.743Z,100.00
2022-11-26T05:09:52.317Z,100.00
2022-11-26T05:12:22.770Z,100.00
2022-11-26T05:14:53.191Z,100.00
2022-11-26T05:17:26.343Z,100.00
2022-11-26T05:19:56.759Z,100.00
2022-11-26T05:22:27.440Z,100.00
2022-11-26T05:24:57.858Z,100.00
2022-11-26T05:27:28.292Z,100.00
2022-11-26T05:29:58.829Z,100.00
2022-11-26T05:32:31.873Z,100.00
2022-11-26T05:35:02.354Z,100.00
2022-11-26T05:37:32.810Z,100.00
2022-11-26T05:40:03.236Z,100.00
2022-11-26T05:42:33.712Z,100.00
2022-11-26T05:45:04.309Z,100.00
2022-11-26T05:47:37.348Z,100.00
2022-11-26T05:50:09.253Z,100.00
2022-11-26T05:52:39.701Z,100.00
2022-11-26T05:55:12.593Z,100.00
2022-11-26T05:57:42.932Z,100.00
2022-11-26T06:00:15.876Z,100.00
2022-11-26T06:02:49.196Z,100.00
2022-11-26T06:05:20.151Z,100.00
2022-11-26T06:07:50.640Z,100.00
2022-11-26T06:10:24.276Z,100.00
2022-11-26T06:12:54.759Z,100.00
2022-11-26T06:15:25.400Z,100.00
2022-11-26T06:17:58.536Z,100.00
2022-11-26T06:20:29.061Z,100.00
2022-11-26T06:22:59.509Z,100.00
2022-11-26T06:25:29.906Z,100.00
2022-11-26T06:28:00.370Z,100.00
2022-11-26T06:30:30.945Z,100.00
2022-11-26T06:33:04.026Z,100.00
2022-11-26T06:35:34.495Z,100.00
2022-11-26T06:38:04.975Z,100.00
2022-11-26T06:40:35.480Z,100.00
2022-11-26T06:43:05.942Z,100.00
2022-11-26T06:45:38.154Z,100.00
2022-11-26T06:48:11.285Z,100.00
2022-11-26T06:50:41.642Z,100.00
2022-11-26T06:53:12.021Z,100.00
2022-11-26T06:55:42.446Z,100.00
2022-11-26T06:58:14.828Z,100.00
2022-11-26T07:00:45.230Z,100.00
2022-11-26T07:03:23.599Z,100.00
2022-11-26T07:05:55.676Z,100.00
2022-11-26T07:08:26.134Z,100.00
2022-11-26T07:10:56.577Z,100.00
2022-11-26T07:13:27.124Z,100.00
2022-11-26T07:15:57.549Z,100.00
2022-11-26T07:18:30.632Z,100.00
2022-11-26T07:21:06.377Z,100.00
2022-11-26T07:23:37.173Z,100.00
2022-11-26T07:26:09.717Z,100.00
2022-11-26T07:28:40.584Z,100.00
2022-11-26T07:31:16.812Z,100.00
2022-11-26T07:33:50.827Z,100.00
2022-11-26T07:36:24.820Z,100.00
2022-11-26T07:38:57.619Z,100.00
2022-11-26T07:41:29.626Z,100.00
2022-11-26T07:44:00.092Z,100.00
2022-11-26T07:46:30.690Z,100.00
2022-11-26T07:49:03.778Z,100.00
2022-11-26T07:51:36.952Z,100.00
2022-11-26T07:54:09.872Z,100.00
2022-11-26T07:56:41.007Z,100.00
2022-11-26T07:59:11.084Z,100.00
2022-11-26T08:01:41.804Z,100.00
2022-11-26T08:04:15.039Z,100.00
2022-11-26T08:06:45.366Z,100.00
2022-11-26T08:09:15.940Z,100.00
2022-11-26T08:11:46.466Z,100.00
2022-11-26T08:14:16.961Z,100.00
2022-11-26T08:16:47.416Z,100.00
2022-11-26T08:19:20.488Z,100.00
2022-11-26T08:21:50.871Z,100.00
2022-11-26T08:24:23.955Z,100.00
2022-11-26T08:26:54.414Z,100.00
2022-11-26T08:29:24.875Z,100.00
2022-11-26T08:31:55.427Z,100.00
2022-11-26T08:34:28.778Z,100.00
2022-11-26T08:36:59.443Z,100.00
2022-11-26T08:39:30.135Z,100.00
2022-11-26T08:42:00.984Z,100.00
2022-11-26T08:44:31.460Z,100.00
2022-11-26T08:47:01.942Z,100.00
2022-11-26T08:49:35.216Z,100.00
2022-11-26T08:52:05.744Z,100.00
2022-11-26T08:54:38.758Z,100.00
2022-11-26T08:57:12.684Z,100.00
2022-11-26T08:59:43.133Z,100.00
2022-11-26T09:02:18.798Z,100.00
2022-11-26T09:04:52.391Z,100.00
2022-11-26T09:07:23.206Z,100.00
2022-11-26T09:09:53.746Z,100.00
2022-11-26T09:12:24.716Z,100.00
2022-11-26T09:14:55.404Z,100.00
2022-11-26T09:17:25.990Z,100.00
2022-11-26T09:19:59.384Z,100.00
2022-11-26T09:22:29.826Z,100.00
2022-11-26T09:25:00.975Z,100.00
2022-11-26T09:27:31.118Z,100.00
2022-11-26T09:30:02.115Z,100.00
2022-11-26T09:32:34.585Z,100.00
2022-11-26T09:35:08.757Z,100.00
2022-11-26T09:37:39.133Z,100.00
2022-11-26T09:40:14.165Z,100.00
2022-11-26T09:42:58.663Z,100.00
2022-11-26T09:45:41.846Z,97.23
2022-11-26T09:48:19.710Z,95.93
2022-11-26T09:50:56.711Z,92.83
2022-11-26T09:53:30.469Z,93.63
2022-11-26T09:56:02.141Z,92.12
2022-11-26T09:58:42.153Z,91.42
2022-11-26T10:01:25.491Z,90.55
2022-11-26T10:03:56.008Z,89.52
2022-11-26T10:06:43.300Z,87.64
2022-11-26T10:09:36.852Z,88.48
2022-11-26T10:12:25.787Z,88.41
2022-11-26T10:15:04.021Z,88.43
2022-11-26T10:17:45.611Z,87.43
2022-11-26T10:20:48.350Z,86.88
2022-11-26T10:23:30.432Z,83.81
2022-11-26T10:26:15.954Z,82.63
2022-11-26T10:28:50.597Z,81.20
2022-11-26T10:31:26.566Z,78.95
2022-11-26T10:34:02.180Z,79.08
2022-11-26T10:36:39.487Z,76.46
2022-11-26T10:39:17.808Z,76.59
2022-11-26T10:41:48.854Z,77.34
2022-11-26T10:44:34.054Z,78.06
2022-11-26T10:47:22.936Z,77.27
2022-11-26T10:49:53.568Z,75.29
2022-11-26T10:52:26.127Z,71.57
2022-11-26T10:55:24.654Z,71.02
2022-11-26T10:57:58.055Z,71.99
2022-11-26T11:00:46.761Z,72.71
2022-11-26T11:03:32.880Z,71.36
2022-11-26T11:06:29.052Z,72.65
2022-11-26T11:08:59.299Z,69.25
2022-11-26T11:11:33.370Z,68.66
2022-11-26T11:14:03.887Z,70.00
2022-11-26T11:16:41.534Z,71.05
2022-11-26T11:19:24.565Z,69.13
2022-11-26T11:21:54.787Z,66.58
2022-11-26T11:24:27.305Z,67.39
2022-11-26T11:27:01.425Z,69.01
2022-11-26T11:29:35.816Z,69.01
2022-11-26T11:32:08.598Z,70.00
2022-11-26T11:34:42.645Z,66.91
2022-11-26T11:37:18.680Z,63.63
2022-11-26T11:39:48.789Z,55.40
2022-11-26T11:42:28.331Z,52.34
2022-11-26T11:44:59.883Z,53.09
2022-11-26T11:47:37.553Z,56.51
2022-11-26T11:50:22.557Z,59.01
2022-11-26T11:53:03.068Z,60.55
2022-11-26T11:55:47.267Z,62.63
2022-11-26T11:58:35.511Z,63.30
2022-11-26T12:01:11.461Z,63.82
2022-11-26T12:04:09.000Z,65.56
2022-11-26T12:06:54.044Z,65.75
2022-11-26T12:09:28.915Z,68.45
2022-11-26T12:12:01.998Z,70.48
2022-11-26T12:14:39.092Z,71.63
2022-11-26T12:17:14.077Z,68.88
2022-11-26T12:19:48.283Z,65.43
2022-11-26T12:22:20.749Z,63.80
2022-11-26T12:24:55.501Z,65.14
2022-11-26T12:27:31.236Z,60.85
2022-11-26T12:30:08.842Z,58.38
2022-11-26T12:32:41.382Z,56.26
2022-11-26T12:35:17.675Z,53.83
2022-11-26T12:37:50.908Z,51.79
2022-11-26T12:40:33.050Z,55.30
2022-11-26T12:43:07.025Z,58.09
2022-11-26T12:45:54.451Z,59.98
2022-11-26T12:48:36.697Z,58.42
2022-11-26T12:51:16.439Z,57.41
2022-11-26T12:53:51.639Z,59.21
2022-11-26T12:56:25.827Z,62.17
2022-11-26T12:59:02.544Z,63.62
2022-11-26T13:01:35.568Z,61.94
2022-11-26T13:04:36.004Z,62.36
2022-11-26T13:07:08.732Z,65.29
2022-11-26T13:09:54.937Z,66.14
2022-11-26T13:12:32.101Z,65.29
2022-11-26T13:15:09.470Z,65.65
2022-11-26T13:17:45.826Z,65.40
2022-11-26T13:20:36.064Z,64.30
2022-11-26T13:23:18.829Z,64.29
2022-11-26T13:26:04.122Z,65.39
2022-11-26T13:28:47.801Z,66.37
2022-11-26T13:31:35.405Z,66.01
2022-11-26T13:34:29.177Z,66.84
2022-11-26T13:37:20.119Z,67.88
2022-11-26T13:40:15.117Z,68.94
2022-11-26T13:43:10.376Z,68.39
2022-11-26T13:45:56.794Z,67.34
2022-11-26T13:48:30.420Z,66.58
2022-11-26T13:51:09.420Z,65.34
2022-11-26T13:53:42.472Z,63.05
2022-11-26T13:56:13.896Z,61.89
2022-11-26T13:58:48.133Z,63.24
2022-11-26T14:01:36.951Z,64.57
2022-11-26T14:04:08.601Z,63.85
2022-11-26T14:06:42.188Z,62.34
2022-11-26T14:09:47.478Z,61.31
2022-11-26T14:12:18.565Z,60.56
2022-11-26T14:14:49.533Z,61.69
2022-11-26T14:17:31.113Z,62.26
2022-11-26T14:20:05.664Z,63.69
2022-11-26T14:22:40.144Z,64.83
2022-11-26T14:25:13.428Z,65.30
2022-11-26T14:27:46.823Z,66.46
2022-11-26T14:30:26.903Z,67.74
2022-11-26T14:33:13.628Z,69.37
2022-11-26T14:35:45.132Z,70.45
2022-11-26T14:38:31.672Z,71.39
2022-11-26T14:41:02.913Z,72.39
2022-11-26T14:43:33.052Z,73.87
2022-11-26T14:46:09.411Z,74.51
2022-11-26T14:48:44.911Z,75.23
2022-11-26T14:51:17.502Z,76.24
2022-11-26T14:53:51.400Z,76.74
2022-11-26T14:56:23.104Z,77.47
2022-11-26T14:58:55.717Z,78.42
2022-11-26T15:01:27.093Z,79.57
2022-11-26T15:04:02.395Z,80.13
2022-11-26T15:06:38.388Z,81.45
2022-11-26T15:09:15.687Z,82.16
2022-11-26T15:11:49.161Z,83.01
2022-11-26T15:14:23.944Z,83.70
2022-11-26T15:16:59.019Z,84.35
2022-11-26T15:19:30.377Z,85.04
2022-11-26T15:22:01.036Z,85.83
2022-11-26T15:24:34.538Z,86.63
2022-11-26T15:27:04.923Z,86.51
2022-11-26T15:29:41.121Z,86.13
2022-11-26T15:32:29.568Z,86.58
2022-11-26T15:35:03.058Z,86.55
2022-11-26T15:37:33.260Z,87.04
2022-11-26T15:40:23.681Z,86.94
2022-11-26T15:42:57.109Z,86.38
2022-11-26T15:45:35.685Z,86.72
2022-11-26T15:48:07.438Z,87.63
2022-11-26T15:50:39.829Z,87.87
2022-11-26T15:53:16.285Z,87.95
2022-11-26T15:55:50.964Z,87.97
2022-11-26T15:58:24.211Z,87.63
2022-11-26T16:00:56.439Z,88.32
2022-11-26T16:03:45.523Z,88.90
2022-11-26T16:06:34.087Z,89.14
2022-11-26T16:09:09.089Z,89.22
2022-11-26T16:11:44.486Z,89.50
2022-11-26T16:14:25.946Z,89.62
2022-11-26T16:16:56.492Z,90.18
2022-11-26T16:19:28.864Z,90.26
2022-11-26T16:21:59.682Z,90.36
2022-11-26T16:24:33.717Z,90.42
2022-11-26T16:27:08.915Z,90.34
2022-11-26T16:29:39.324Z,90.64
2022-11-26T16:32:09.444Z,90.79
2022-11-26T16:34:39.735Z,90.44
2022-11-26T16:37:23.191Z,90.17
2022-11-26T16:39:54.767Z,90.42
2022-11-26T16:42:27.754Z,90.77
2022-11-26T16:45:02.690Z,91.33
2022-11-26T16:47:36.092Z,91.45
2022-11-26T16:50:13.338Z,91.53
2022-11-26T16:52:44.968Z,91.55
2022-11-26T16:55:16.539Z,91.69
2022-11-26T16:57:51.767Z,91.38
2022-11-26T17:00:24.283Z,91.49
2022-11-26T17:02:54.879Z,91.78
2022-11-26T17:05:25.356Z,91.60
2022-11-26T17:07:57.715Z,92.07
2022-11-26T17:10:29.490Z,92.10
2022-11-26T17:13:02.273Z,92.38
2022-11-26T17:15:32.526Z,92.28
2022-11-26T17:18:05.310Z,92.54
2022-11-26T17:20:35.525Z,93.10
2022-11-26T17:23:05.711Z,93.38
2022-11-26T17:25:35.913Z,93.57
2022-11-26T17:28:09.072Z,93.07
2022-11-26T17:30:39.317Z,93.47
2022-11-26T17:33:09.547Z,93.74
2022-11-26T17:35:40.141Z,93.42
2022-11-26T17:38:17.459Z,93.35
2022-11-26T17:40:48.246Z,93.27
2022-11-26T17:43:21.064Z,93.31
2022-11-26T17:45:51.329Z,92.97
2022-11-26T17:48:26.474Z,93.13
2022-11-26T17:50:56.915Z,93.46
2022-11-26T17:53:27.440Z,93.51
2022-11-26T17:55:57.583Z,94.68
2022-11-26T17:58:30.556Z,95.44
2022-11-26T18:01:00.742Z,93.92
2022-11-26T18:03:30.854Z,93.32
2022-11-26T18:06:01.013Z,92.73
2022-11-26T18:08:31.143Z,93.87
2022-11-26T18:11:01.304Z,92.84
2022-11-26T18:13:34.116Z,91.79
2022-11-26T18:16:04.409Z,91.83
2022-11-26T18:18:34.667Z,91.41
2022-11-26T18:21:05.033Z,91.63
2022-11-26T18:23:35.299Z,92.22
2022-11-26T18:26:05.521Z,92.70
2022-11-26T18:28:40.769Z,93.37
2022-11-26T18:31:11.054Z,92.78
2022-11-26T18:33:41.259Z,92.37
2022-11-26T18:36:12.101Z,92.31
2022-11-26T18:38:42.281Z,92.23
2022-11-26T18:41:12.625Z,91.99
2022-11-26T18:43:45.501Z,91.87
2022-11-26T18:46:17.699Z,91.49
2022-11-26T18:48:49.211Z,91.64
2022-11-26T18:51:20.138Z,91.53
2022-11-26T18:53:50.640Z,91.72
2022-11-26T18:56:22.849Z,92.27
2022-11-26T18:58:55.642Z,92.14
2022-11-26T19:01:27.741Z,91.84
2022-11-26T19:03:59.092Z,91.82
2022-11-26T19:06:31.262Z,91.98
2022-11-26T19:09:03.392Z,91.83
2022-11-26T19:11:33.987Z,91.75
2022-11-26T19:14:06.794Z,91.74
2022-11-26T19:16:37.007Z,91.07
2022-11-26T19:19:07.133Z,90.86
2022-11-26T19:21:38.133Z,91.06
2022-11-26T19:24:10.886Z,91.30
2022-11-26T19:26:42.275Z,91.56
2022-11-26T19:29:15.748Z,91.43
2022-11-26T19:31:45.858Z,92.30
2022-11-26T19:34:18.117Z,93.07
2022-11-26T19:36:49.231Z,93.93
2022-11-26T19:39:20.321Z,93.34
2022-11-26T19:41:50.577Z,93.09
2022-11-26T19:44:23.285Z,93.73
2022-11-26T19:46:53.392Z,94.37
2022-11-26T19:49:23.602Z,94.80
2022-11-26T19:51:54.071Z,95.08
2022-11-26T19:54:24.664Z,95.19
2022-11-26T19:56:54.773Z,95.28
2022-11-26T19:59:27.541Z,95.93
2022-11-26T20:01:57.713Z,95.93
2022-11-26T20:04:29.708Z,95.78
2022-11-26T20:06:59.796Z,95.96
2022-11-26T20:09:30.138Z,95.86
2022-11-26T20:12:00.278Z,95.71
2022-11-26T20:14:33.168Z,95.08
2022-11-26T20:17:03.376Z,94.49
2022-11-26T20:19:33.796Z,94.54
2022-11-26T20:22:04.064Z,95.18
2022-11-26T20:24:34.279Z,94.75
2022-11-26T20:27:04.531Z,94.05
2022-11-26T20:29:37.546Z,93.87
2022-11-26T20:32:07.869Z,93.78
2022-11-26T20:34:38.087Z,93.35
2022-11-26T20:37:08.264Z,93.66
2022-11-26T20:39:38.759Z,93.56
2022-11-26T20:42:09.312Z,93.83
2022-11-26T20:44:42.080Z,93.87
2022-11-26T20:47:12.272Z,93.84
2022-11-26T20:49:43.492Z,93.33
2022-11-26T20:52:13.799Z,93.26
2022-11-26T20:54:43.942Z,94.27
2022-11-26T20:57:14.223Z,94.57
2022-11-26T20:59:46.914Z,95.07
2022-11-26T21:02:17.104Z,94.55
2022-11-26T21:04:47.413Z,94.06
2022-11-26T21:07:17.696Z,93.61
2022-11-26T21:09:48.176Z,93.25
2022-11-26T21:12:18.275Z,93.08
2022-11-26T21:14:51.231Z,92.84
2022-11-26T21:17:21.615Z,93.05
2022-11-26T21:19:51.919Z,93.72
2022-11-26T21:22:22.402Z,93.43
2022-11-26T21:24:52.574Z,92.63
2022-11-26T21:27:22.656Z,92.99
2022-11-26T21:29:55.659Z,93.14
2022-11-26T21:32:25.752Z,92.85
2022-11-26T21:34:56.078Z,92.70
2022-11-26T21:37:26.199Z,92.63
2022-11-26T21:39:56.310Z,91.88
2022-11-26T21:42:26.460Z,91.65
2022-11-26T21:44:59.220Z,91.76
2022-11-26T21:47:29.339Z,91.85
2022-11-26T21:49:59.468Z,91.78
2022-11-26T21:52:29.746Z,91.71
2022-11-26T21:55:03.588Z,91.82
2022-11-26T21:57:34.527Z,91.41
2022-11-26T22:00:08.617Z,91.23
2022-11-26T22:02:38.935Z,91.61
2022-11-26T22:05:09.768Z,91.04
2022-11-26T22:07:39.998Z,90.90
2022-11-26T22:10:12.195Z,91.01
2022-11-26T22:12:42.324Z,91.22
2022-11-26T22:15:15.423Z,91.47
2022-11-26T22:17:45.531Z,91.06
2022-11-26T22:20:16.659Z,91.07
2022-11-26T22:22:46.747Z,91.59
2022-11-26T22:25:16.980Z,91.61
2022-11-26T22:27:47.101Z,91.62
2022-11-26T22:30:20.888Z,91.55
2022-11-26T22:32:50.989Z,91.44
2022-11-26T22:35:21.105Z,91.58
2022-11-26T22:37:51.242Z,91.54
2022-11-26T22:40:21.687Z,91.80
2022-11-26T22:42:51.824Z,92.14
2022-11-26T22:45:24.881Z,92.43
2022-11-26T22:47:55.298Z,92.56
2022-11-26T22:50:25.912Z,92.71
2022-11-26T22:52:56.014Z,93.03
2022-11-26T22:55:26.140Z,93.15
2022-11-26T22:57:56.248Z,93.63
2022-11-26T23:00:50.472Z,93.64
2022-11-26T23:03:21.552Z,93.53
2022-11-26T23:05:51.794Z,93.48
2022-11-26T23:08:22.785Z,93.74
2022-11-26T23:10:52.967Z,93.96
2022-11-26T23:13:23.229Z,94.10
2022-11-26T23:15:55.970Z,94.56
2022-11-26T23:18:26.282Z,94.93
2022-11-26T23:21:05.712Z,94.91
2022-11-26T23:23:37.147Z,94.52
2022-11-26T23:26:08.343Z,94.41
2022-11-26T23:28:39.767Z,94.08
2022-11-26T23:31:16.415Z,93.91
2022-11-26T23:33:46.728Z,93.99
2022-11-26T23:36:17.661Z,93.63
2022-11-26T23:38:47.808Z,93.36
2022-11-26T23:41:19.448Z,93.28
2022-11-26T23:43:49.891Z,93.49
2022-11-26T23:46:25.179Z,93.20
2022-11-26T23:48:56.182Z,93.03
2022-11-26T23:51:27.991Z,92.28
2022-11-26T23:53:58.375Z,92.00
2022-11-26T23:56:30.146Z,92.62
2022-11-26T23:59:01.852Z,92.61
